Station History

Weather Underground - logo

Station Historical Data
 
Daily Summary for February 23, 2018 Units:  English    Metric   Both
« Previous Day
Next Day »
Daily Weekly Monthly Yearly Custom
  Current: High: Low: Average:
Temperature: 52.9 °F 53.0 °F 34.2 °F 42.7 °F
Dew Point: 30.4 °F 38.9 °F 30.4 °F 35.8 °F
Humidity: 42 % 95 % 42 % 78 %
Wind Speed: 13.8 mph 13.8 mph 0.0 mph 2.1 mph
Wind Gust: 13.8 mph 13.8 mph - -
Wind:NNW - - WNW
Pressure: 30.31 in 30.35 in 30.22 in -
Precipitation: 0.01 in      
Historical Graphs
 
 
Tabular Data for February 23, 2018
Time Temperature Dew Point Pressure Wind Wind Speed Wind Gust Humidity Rainfall Rate (Hourly)
00:03 42.9 °F 38.7 °F 30.22 in NW 1.2 mph   85 % 0.00 in
00:08 42.8 °F 38.9 °F 30.22 in NW 2.3 mph 2.3 mph 86 % 0.00 in
00:13 42.5 °F 38.6 °F 30.23 in NW 3.5 mph 3.5 mph 86 % 0.00 in
00:18 42.4 °F 38.2 °F 30.23 in WNW 3.5 mph 3.5 mph 85 % 0.00 in
00:24 42.3 °F 37.8 °F 30.23 in NW 3.5 mph 3.5 mph 84 % 0.00 in
00:29 42.0 °F 37.5 °F 30.23 in NW 2.3 mph 2.3 mph 84 % 0.00 in
00:34 41.7 °F 37.2 °F 30.23 in WNW 1.2 mph 1.2 mph 84 % 0.00 in
00:39 41.6 °F 37.4 °F 30.23 in NW 1.2 mph 1.2 mph 85 % 0.00 in
00:44 41.5 °F 37.3 °F 30.22 in WNW 2.3 mph   85 % 0.00 in
00:49 41.5 °F 37.3 °F 30.23 in WNW 2.3 mph 2.3 mph 85 % 0.00 in
00:54 41.8 °F 37.3 °F 30.23 in NW 2.3 mph 2.3 mph 84 % 0.00 in
00:59 42.2 °F 37.4 °F 30.23 in NW 1.2 mph   83 % 0.00 in
01:04 42.3 °F 37.5 °F 30.23 in West 1.2 mph   83 % 0.00 in
01:09 42.3 °F 37.2 °F 30.23 in West 1.2 mph   82 % 0.00 in
01:14 42.2 °F 37.4 °F 30.23 in West 1.2 mph   83 % 0.00 in
01:19 42.1 °F 37.3 °F 30.23 in Calm     83 % 0.00 in
01:24 42.0 °F 37.2 °F 30.23 in Calm     83 % 0.00 in
01:29 41.8 °F 37.3 °F 30.23 in Calm     84 % 0.00 in
01:34 41.7 °F 37.2 °F 30.23 in Calm     84 % 0.00 in
01:39 41.5 °F 37.3 °F 30.23 in Calm     85 % 0.00 in
01:44 41.3 °F 37.1 °F 30.23 in Calm     85 % 0.00 in
01:49 41.3 °F 37.4 °F 30.22 in Calm     86 % 0.00 in
01:54 41.3 °F 37.4 °F 30.23 in Calm     86 % 0.00 in
01:59 41.3 °F 37.4 °F 30.23 in Calm     86 % 0.00 in
02:04 41.3 °F 37.4 °F 30.23 in Calm     86 % 0.00 in
02:09 41.4 °F 37.5 °F 30.23 in Calm     86 % 0.00 in
02:14 41.5 °F 37.3 °F 30.23 in Calm     85 % 0.00 in
02:19 41.6 °F 37.4 °F 30.23 in Calm     85 % 0.00 in
02:24 41.5 °F 37.0 °F 30.23 in Calm     84 % 0.00 in
02:29 41.5 °F 37.0 °F 30.23 in West 1.2 mph   84 % 0.00 in
02:34 41.4 °F 36.6 °F 30.23 in Calm     83 % 0.00 in
02:39 41.3 °F 36.5 °F 30.23 in Calm     83 % 0.00 in
02:44 40.9 °F 36.1 °F 30.23 in Calm   0.1 mph 83 % 0.00 in
02:49 40.2 °F 35.8 °F 30.23 in Calm     84 % 0.00 in
02:54 39.7 °F 35.6 °F 30.23 in Calm     85 % 0.00 in
02:59 39.4 °F 35.6 °F 30.23 in West 1.2 mph 1.2 mph 86 % 0.00 in
03:04 39.2 °F 35.4 °F 30.23 in Calm     86 % 0.00 in
03:09 38.9 °F 35.4 °F 30.23 in Calm     87 % 0.00 in
03:15 38.7 °F 35.5 °F 30.23 in West 1.2 mph   88 % 0.00 in
03:20 38.6 °F 35.4 °F 30.23 in Calm     88 % 0.00 in
03:25 38.5 °F 35.3 °F 30.23 in West 1.2 mph 1.2 mph 88 % 0.00 in
03:30 38.6 °F 35.4 °F 30.23 in West 1.2 mph   88 % 0.00 in
03:35 38.6 °F 35.4 °F 30.23 in NW 1.2 mph 1.2 mph 88 % 0.00 in
03:40 38.5 °F 35.3 °F 30.23 in NW 1.2 mph 1.2 mph 88 % 0.00 in
03:45 38.4 °F 35.2 °F 30.24 in NW 1.2 mph 1.2 mph 88 % 0.00 in
03:50 38.4 °F 35.4 °F 30.24 in NW 1.2 mph 1.2 mph 89 % 0.00 in
03:55 38.5 °F 35.5 °F 30.24 in NW 1.2 mph 1.2 mph 89 % 0.00 in
04:00 38.6 °F 35.6 °F 30.24 in Calm     89 % 0.00 in
04:05 38.7 °F 35.7 °F 30.24 in Calm     89 % 0.00 in
04:10 38.9 °F 35.6 °F 30.24 in Calm     88 % 0.00 in
04:15 39.0 °F 35.7 °F 30.24 in Calm     88 % 0.00 in
04:20 39.1 °F 35.8 °F 30.25 in Calm     88 % 0.00 in
04:25 39.1 °F 35.8 °F 30.25 in Calm     88 % 0.00 in
04:30 39.0 °F 35.7 °F 30.25 in Calm     88 % 0.00 in
04:35 38.7 °F 35.5 °F 30.25 in Calm     88 % 0.00 in
04:40 38.2 °F 35.0 °F 30.25 in Calm     88 % 0.00 in
04:45 37.9 °F 34.9 °F 30.25 in Calm     89 % 0.00 in
04:50 37.8 °F 35.1 °F 30.25 in Calm     90 % 0.00 in
04:55 37.5 °F 34.6 °F 30.25 in Calm     89 % 0.00 in
05:00 37.2 °F 34.5 °F 30.26 in Calm     90 % 0.00 in
05:05 37.0 °F 34.3 °F 30.25 in Calm     90 % 0.00 in
05:10 36.8 °F 34.1 °F 30.25 in Calm     90 % 0.00 in
05:15 36.5 °F 33.8 °F 30.25 in Calm     90 % 0.00 in
05:20 36.3 °F 33.9 °F 30.25 in Calm     91 % 0.00 in
05:25 36.2 °F 33.8 °F 30.26 in Calm     91 % 0.00 in
05:30 36.1 °F 33.7 °F 30.26 in Calm     91 % 0.00 in
05:35 35.9 °F 33.5 °F 30.26 in Calm     91 % 0.00 in
05:40 35.7 °F 33.3 °F 30.26 in Calm     91 % 0.00 in
05:45 35.5 °F 33.4 °F 30.26 in Calm     92 % 0.00 in
05:50 35.6 °F 33.5 °F 30.27 in Calm     92 % 0.00 in
05:55 35.4 °F 33.3 °F 30.27 in Calm     92 % 0.00 in
06:00 35.3 °F 33.2 °F 30.27 in Calm     92 % 0.00 in
06:05 35.0 °F 32.9 °F 30.27 in Calm     92 % 0.00 in
06:10 34.9 °F 32.8 °F 30.27 in Calm     92 % 0.00 in
06:15 34.9 °F 33.1 °F 30.27 in Calm     93 % 0.00 in
06:20 35.0 °F 33.2 °F 30.27 in Calm     93 % 0.00 in
06:25 35.0 °F 33.2 °F 30.27 in Calm     93 % 0.00 in
06:30 35.0 °F 33.2 °F 30.28 in Calm     93 % 0.00 in
06:35 34.9 °F 33.1 °F 30.28 in Calm     93 % 0.00 in
06:40 34.8 °F 33.0 °F 30.28 in Calm     93 % 0.00 in
06:45 34.8 °F 33.0 °F 30.29 in Calm     93 % 0.00 in
06:50 34.5 °F 32.7 °F 30.28 in Calm     93 % 0.00 in
06:55 34.3 °F 32.5 °F 30.29 in Calm     93 % 0.00 in
07:00 34.2 °F 32.4 °F 30.29 in Calm     93 % 0.01 in
07:06 34.2 °F 32.4 °F 30.30 in Calm     93 % 0.01 in
07:11 34.5 °F 33.0 °F 30.30 in Calm     94 % 0.01 in
07:15 34.9 °F 33.3 °F 30.30 in Calm     94 % 0.01 in
07:20 35.3 °F 33.7 °F 30.30 in Calm     94 % 0.01 in
07:26 35.9 °F 34.6 °F 30.30 in Calm     95 % 0.01 in
07:31 36.1 °F 34.8 °F 30.30 in Calm     95 % 0.01 in
07:36 36.6 °F 35.3 °F 30.31 in Calm     95 % 0.01 in
07:41 37.3 °F 36.0 °F 30.31 in Calm     95 % 0.01 in
07:46 38.0 °F 36.4 °F 30.31 in Calm     94 % 0.01 in
07:51 38.8 °F 36.7 °F 30.31 in Calm     92 % 0.01 in
07:56 39.3 °F 36.6 °F 30.32 in WNW 1.2 mph 1.2 mph 90 % 0.00 in
08:01 39.8 °F 36.8 °F 30.32 in WNW 1.2 mph   89 % 0.00 in
08:06 40.3 °F 37.0 °F 30.32 in WNW 1.2 mph 1.2 mph 88 % 0.00 in
08:11 40.6 °F 36.7 °F 30.32 in NW 3.5 mph 3.5 mph 86 % 0.00 in
08:16 40.8 °F 36.6 °F 30.32 in NNW 3.5 mph 3.5 mph 85 % 0.00 in
08:21 41.2 °F 37.0 °F 30.32 in NNW 1.2 mph 1.2 mph 85 % 0.00 in
08:26 41.5 °F 36.7 °F 30.32 in East 4.6 mph 4.6 mph 83 % 0.00 in
08:31 41.7 °F 36.6 °F 30.32 in NW 3.5 mph 3.5 mph 82 % 0.00 in
08:36 42.0 °F 36.9 °F 30.32 in NW 3.5 mph 3.5 mph 82 % 0.00 in
08:41 42.2 °F 36.8 °F 30.33 in WNW 3.5 mph 3.5 mph 81 % 0.00 in
08:46 42.4 °F 37.0 °F 30.33 in NW 3.5 mph 3.5 mph 81 % 0.00 in
08:51 42.7 °F 37.3 °F 30.33 in NW 3.5 mph 3.5 mph 81 % 0.00 in
08:56 43.0 °F 37.3 °F 30.33 in NW 2.3 mph 2.3 mph 80 % 0.00 in
09:01 43.4 °F 37.3 °F 30.33 in WNW 3.5 mph 3.5 mph 79 % 0.00 in
09:06 43.7 °F 37.6 °F 30.34 in NNW 2.3 mph 2.3 mph 79 % 0.00 in
09:11 43.9 °F 37.2 °F 30.34 in NW 3.5 mph 3.5 mph 77 % 0.00 in
09:16 44.1 °F 37.7 °F 30.34 in NW 3.0 mph 3.0 mph 78 % 0.00 in
09:21 44.4 °F 37.6 °F 30.34 in West 2.0 mph 2.0 mph 77 % 0.00 in
09:26 44.5 °F 37.4 °F 30.34 in NE 3.5 mph 3.5 mph 76 % 0.00 in
09:31 44.8 °F 37.7 °F 30.34 in NNW 2.3 mph 2.3 mph 76 % 0.00 in
09:36 44.9 °F 37.5 °F 30.34 in NW 4.0 mph 4.0 mph 75 % 0.00 in
09:41 45.2 °F 38.1 °F 30.34 in NNW 3.5 mph 3.5 mph 76 % 0.00 in
09:46 45.3 °F 38.2 °F 30.35 in North 3.5 mph 3.5 mph 76 % 0.00 in
09:51 45.3 °F 37.5 °F 30.35 in NNW 4.6 mph 4.6 mph 74 % 0.00 in
09:56 45.3 °F 37.5 °F 30.35 in NNW 9.2 mph 9.2 mph 74 % 0.00 in
10:01 45.2 °F 37.1 °F 30.35 in NNW 4.6 mph 4.6 mph 73 % 0.00 in
10:06 45.5 °F 37.7 °F 30.35 in NW 3.5 mph 3.5 mph 74 % 0.00 in
10:11 46.0 °F 38.5 °F 30.35 in NNW 3.5 mph 3.5 mph 75 % 0.00 in
10:16 46.1 °F 37.9 °F 30.35 in WNW 5.8 mph 5.8 mph 73 % 0.00 in
10:21 45.8 °F 38.0 °F 30.35 in WNW 3.5 mph 3.5 mph 74 % 0.00 in
10:26 46.1 °F 37.9 °F 30.35 in West 3.5 mph 3.5 mph 73 % 0.00 in
10:31 46.6 °F 37.7 °F 30.35 in NW 3.5 mph 3.5 mph 71 % 0.00 in
10:36 46.5 °F 38.0 °F 30.35 in NNW 3.0 mph 3.0 mph 72 % 0.00 in
10:41 47.0 °F 38.4 °F 30.35 in WNW 4.6 mph 4.6 mph 72 % 0.00 in
10:46 47.0 °F 37.7 °F 30.35 in WSW 2.3 mph 2.3 mph 70 % 0.00 in
10:51 47.4 °F 38.1 °F 30.35 in WNW 1.2 mph 1.2 mph 70 % 0.00 in
10:52 47.5 °F 37.8 °F 30.35 in WNW 1.2 mph 1.2 mph 69 % 0.00 in
10:57 47.8 °F 37.7 °F 30.35 in NNW 4.6 mph 4.6 mph 68 % 0.00 in
11:02 47.6 °F 37.6 °F 30.35 in NNW 1.2 mph 1.2 mph 68 % 0.00 in
11:07 48.2 °F 37.4 °F 30.35 in WNW 4.0 mph 4.0 mph 66 % 0.00 in
11:12 48.3 °F 36.7 °F 30.35 in NNW 2.3 mph 2.3 mph 64 % 0.00 in
11:17 48.6 °F 37.0 °F 30.34 in WNW 3.5 mph 3.5 mph 64 % 0.00 in
11:22 48.2 °F 35.8 °F 30.34 in NNW 4.6 mph 4.6 mph 62 % 0.00 in
11:27 48.4 °F 36.8 °F 30.34 in NW 5.0 mph 5.0 mph 64 % 0.00 in
11:32 48.9 °F 36.0 °F 30.34 in NW 3.5 mph 3.5 mph 61 % 0.00 in
11:37 49.1 °F 36.2 °F 30.34 in NW 2.3 mph 2.3 mph 61 % 0.00 in
11:42 49.8 °F 36.9 °F 30.33 in NW 4.0 mph 4.0 mph 61 % 0.00 in
11:47 49.8 °F 36.0 °F 30.33 in WNW 4.0 mph 4.0 mph 59 % 0.00 in
11:52 50.1 °F 36.3 °F 30.33 in NNW 3.5 mph 3.5 mph 59 % 0.00 in
11:57 50.6 °F 36.8 °F 30.33 in NW 3.5 mph 3.5 mph 59 % 0.00 in
12:02 50.5 °F 35.8 °F 30.33 in NW 3.5 mph 3.5 mph 57 % 0.00 in
12:07 50.7 °F 36.0 °F 30.33 in NW 5.8 mph 5.8 mph 57 % 0.00 in
12:12 50.9 °F 35.7 °F 30.33 in WNW 4.6 mph 4.6 mph 56 % 0.00 in
12:17 51.1 °F 35.5 °F 30.33 in WNW 6.9 mph 6.9 mph 55 % 0.00 in
12:22 51.1 °F 35.5 °F 30.33 in NW 5.8 mph 5.8 mph 55 % 0.00 in
12:27 50.7 °F 35.1 °F 30.33 in NNW 3.5 mph 3.5 mph 55 % 0.00 in
12:32 51.0 °F 35.4 °F 30.33 in NW 9.2 mph 9.2 mph 55 % 0.00 in
12:37 50.5 °F 35.4 °F 30.33 in NNW 3.5 mph 3.5 mph 56 % 0.00 in
12:42 50.7 °F 35.1 °F 30.32 in WNW 2.3 mph 2.3 mph 55 % 0.00 in
12:47 51.7 °F 36.0 °F 30.32 in NW 5.8 mph 5.8 mph 55 % 0.00 in
12:52 51.8 °F 35.2 °F 30.32 in NNW 2.3 mph 2.3 mph 53 % 0.00 in
12:57 51.6 °F 35.9 °F 30.32 in NW 4.6 mph 4.6 mph 55 % 0.00 in
13:03 51.5 °F 34.9 °F 30.31 in NW 5.0 mph 5.0 mph 53 % 0.00 in
13:08 51.5 °F 34.0 °F 30.31 in NW 4.6 mph 4.6 mph 51 % 0.00 in
13:13 52.1 °F 34.5 °F 30.31 in WNW 9.2 mph 9.2 mph 51 % 0.00 in
13:18 52.0 °F 33.4 °F 30.32 in NW 5.8 mph 5.8 mph 49 % 0.00 in
13:23 51.9 °F 34.8 °F 30.31 in WNW 4.0 mph 4.0 mph 52 % 0.00 in
13:28 52.1 °F 33.5 °F 30.31 in NW 5.8 mph 5.8 mph 49 % 0.00 in
13:33 52.4 °F 33.8 °F 30.31 in WNW 4.6 mph 4.6 mph 49 % 0.00 in
13:38 52.2 °F 33.1 °F 30.31 in WNW 3.5 mph 3.5 mph 48 % 0.00 in
13:43 52.7 °F 34.6 °F 30.31 in NW 5.0 mph 5.0 mph 50 % 0.00 in
13:48 52.8 °F 33.1 °F 30.30 in WNW 3.5 mph 3.5 mph 47 % 0.00 in
13:53 52.7 °F 32.5 °F 30.30 in NW 6.9 mph 6.9 mph 46 % 0.00 in
13:58 52.8 °F 33.6 °F 30.30 in NW 5.8 mph 5.8 mph 48 % 0.00 in
14:03 53.0 °F 31.6 °F 30.31 in NW 5.8 mph 5.8 mph 44 % 0.00 in
14:08 52.7 °F 31.4 °F 30.31 in NW 2.3 mph 2.3 mph 44 % 0.00 in
14:13 52.9 °F 30.4 °F 30.31 in NNW 13.8 mph 13.8 mph 42 % 0.00 in
Park Place, Exeter, Tulare County, California, USA
Compliments of Weather Underground - 2 mb